sensor_id;sensor_type;location;lat;lon;timestamp;temperature;humidity
7844;DHT22;3967;48.702;9.326;2023-04-07T00:00:24;8.40;98.80
7844;DHT22;3967;48.702;9.326;2023-04-07T00:02:52;8.40;98.80
7844;DHT22;3967;48.702;9.326;2023-04-07T00:05:19;8.50;98.90
7844;DHT22;3967;48.702;9.326;2023-04-07T00:07:46;8.60;98.70
7844;DHT22;3967;48.702;9.326;2023-04-07T00:10:22;8.70;98.10
7844;DHT22;3967;48.702;9.326;2023-04-07T00:12:49;8.80;97.60
7844;DHT22;3967;48.702;9.326;2023-04-07T00:15:15;8.80;97.30
7844;DHT22;3967;48.702;9.326;2023-04-07T00:17:42;8.90;96.90
7844;DHT22;3967;48.702;9.326;2023-04-07T00:20:09;8.80;96.50
7844;DHT22;3967;48.702;9.326;2023-04-07T00:22:36;8.80;96.80
7844;DHT22;3967;48.702;9.326;2023-04-07T00:25:03;8.90;96.40
7844;DHT22;3967;48.702;9.326;2023-04-07T00:27:30;8.90;95.90
7844;DHT22;3967;48.702;9.326;2023-04-07T00:29:57;8.90;95.70
7844;DHT22;3967;48.702;9.326;2023-04-07T00:32:24;8.90;95.70
7844;DHT22;3967;48.702;9.326;2023-04-07T00:34:50;8.80;95.80
7844;DHT22;3967;48.702;9.326;2023-04-07T00:37:17;8.70;96.40
7844;DHT22;3967;48.702;9.326;2023-04-07T00:39:45;8.50;97.60
7844;DHT22;3967;48.702;9.326;2023-04-07T00:42:12;8.60;98.10
7844;DHT22;3967;48.702;9.326;2023-04-07T00:44:39;8.60;97.80
7844;DHT22;3967;48.702;9.326;2023-04-07T00:47:05;8.60;97.60
7844;DHT22;3967;48.702;9.326;2023-04-07T00:49:32;8.60;97.30
7844;DHT22;3967;48.702;9.326;2023-04-07T00:52:00;8.70;97.50
7844;DHT22;3967;48.702;9.326;2023-04-07T00:54:29;8.70;97.30
7844;DHT22;3967;48.702;9.326;2023-04-07T00:56:56;8.70;97.30
7844;DHT22;3967;48.702;9.326;2023-04-07T00:59:23;8.70;97.40
7844;DHT22;3967;48.702;9.326;2023-04-07T01:04:43;8.60;98.00
7844;DHT22;3967;48.702;9.326;2023-04-07T01:07:15;8.50;98.20
7844;DHT22;3967;48.702;9.326;2023-04-07T01:09:53;8.20;98.50
7844;DHT22;3967;48.702;9.326;2023-04-07T01:12:33;8.20;99.10
7844;DHT22;3967;48.702;9.326;2023-04-07T01:15:09;8.30;99.30
7844;DHT22;3967;48.702;9.326;2023-04-07T01:17:41;8.30;99.30
7844;DHT22;3967;48.702;9.326;2023-04-07T01:20:12;8.20;99.30
7844;DHT22;3967;48.702;9.326;2023-04-07T01:22:42;8.10;99.90
7844;DHT22;3967;48.702;9.326;2023-04-07T01:25:25;8.20;99.80
7844;DHT22;3967;48.702;9.326;2023-04-07T01:30:32;8.30;99.80
7844;DHT22;3967;48.702;9.326;2023-04-07T01:33:01;8.30;99.60
7844;DHT22;3967;48.702;9.326;2023-04-07T01:35:32;8.20;99.40
7844;DHT22;3967;48.702;9.326;2023-04-07T01:38:01;8.30;99.30
7844;DHT22;3967;48.702;9.326;2023-04-07T01:40:29;8.20;99.30
7844;DHT22;3967;48.702;9.326;2023-04-07T01:42:57;8.10;99.90
7844;DHT22;3967;48.702;9.326;2023-04-07T01:45:25;8.20;99.90
7844;DHT22;3967;48.702;9.326;2023-04-07T01:47:53;8.00;99.60
7844;DHT22;3967;48.702;9.326;2023-04-07T01:50:21;8.10;99.90
7844;DHT22;3967;48.702;9.326;2023-04-07T01:52:48;8.20;99.60
7844;DHT22;3967;48.702;9.326;2023-04-07T01:55:15;8.20;99.40
7844;DHT22;3967;48.702;9.326;2023-04-07T01:57:41;8.30;99.40
7844;DHT22;3967;48.702;9.326;2023-04-07T02:00:08;8.30;98.90
7844;DHT22;3967;48.702;9.326;2023-04-07T02:02:39;8.40;98.50
7844;DHT22;3967;48.702;9.326;2023-04-07T02:05:10;8.30;98.20
7844;DHT22;3967;48.702;9.326;2023-04-07T02:07:45;8.30;98.20
7844;DHT22;3967;48.702;9.326;2023-04-07T02:10:16;8.30;98.50
7844;DHT22;3967;48.702;9.326;2023-04-07T02:12:46;8.30;98.50
7844;DHT22;3967;48.702;9.326;2023-04-07T02:15:14;8.40;98.20
7844;DHT22;3967;48.702;9.326;2023-04-07T02:17:43;8.20;98.20
7844;DHT22;3967;48.702;9.326;2023-04-07T02:20:11;8.20;98.40
7844;DHT22;3967;48.702;9.326;2023-04-07T02:22:39;8.20;98.80
7844;DHT22;3967;48.702;9.326;2023-04-07T02:25:27;8.00;98.70
7844;DHT22;3967;48.702;9.326;2023-04-07T02:27:55;8.00;99.00
7844;DHT22;3967;48.702;9.326;2023-04-07T02:30:22;8.10;99.30
7844;DHT22;3967;48.702;9.326;2023-04-07T02:32:49;7.90;98.80
7844;DHT22;3967;48.702;9.326;2023-04-07T02:35:16;7.80;99.10
7844;DHT22;3967;48.702;9.326;2023-04-07T02:37:44;7.90;99.40
7844;DHT22;3967;48.702;9.326;2023-04-07T02:40:11;8.00;99.10
7844;DHT22;3967;48.702;9.326;2023-04-07T02:42:38;8.00;99.10
7844;DHT22;3967;48.702;9.326;2023-04-07T02:45:05;8.10;98.50
7844;DHT22;3967;48.702;9.326;2023-04-07T02:47:33;8.00;98.10
7844;DHT22;3967;48.702;9.326;2023-04-07T02:50:00;8.10;98.00
7844;DHT22;3967;48.702;9.326;2023-04-07T02:52:26;8.20;97.80
7844;DHT22;3967;48.702;9.326;2023-04-07T02:54:53;8.20;97.70
7844;DHT22;3967;48.702;9.326;2023-04-07T02:57:20;8.20;97.60
7844;DHT22;3967;48.702;9.326;2023-04-07T02:59:46;8.10;97.70
7844;DHT22;3967;48.702;9.326;2023-04-07T03:02:13;8.10;98.30
7844;DHT22;3967;48.702;9.326;2023-04-07T03:04:40;8.10;98.10
7844;DHT22;3967;48.702;9.326;2023-04-07T03:07:07;8.20;97.80
7844;DHT22;3967;48.702;9.326;2023-04-07T03:09:34;8.20;98.10
7844;DHT22;3967;48.702;9.326;2023-04-07T03:12:00;8.20;98.20
7844;DHT22;3967;48.702;9.326;2023-04-07T03:14:27;8.20;98.00
7844;DHT22;3967;48.702;9.326;2023-04-07T03:16:54;8.20;97.80
7844;DHT22;3967;48.702;9.326;2023-04-07T03:19:22;8.20;97.90
7844;DHT22;3967;48.702;9.326;2023-04-07T03:21:48;8.10;97.90
7844;DHT22;3967;48.702;9.326;2023-04-07T03:24:15;8.20;98.20
7844;DHT22;3967;48.702;9.326;2023-04-07T03:26:42;8.00;98.60
7844;DHT22;3967;48.702;9.326;2023-04-07T03:29:09;8.00;98.90
7844;DHT22;3967;48.702;9.326;2023-04-07T03:31:35;7.90;99.50
7844;DHT22;3967;48.702;9.326;2023-04-07T03:34:03;8.00;99.80
7844;DHT22;3967;48.702;9.326;2023-04-07T03:36:30;7.90;99.90
7844;DHT22;3967;48.702;9.326;2023-04-07T03:38:57;8.10;99.90
7844;DHT22;3967;48.702;9.326;2023-04-07T03:41:24;8.10;99.90
7844;DHT22;3967;48.702;9.326;2023-04-07T03:43:50;8.30;99.50
7844;DHT22;3967;48.702;9.326;2023-04-07T03:46:19;8.30;99.00
7844;DHT22;3967;48.702;9.326;2023-04-07T03:48:46;8.30;98.50
7844;DHT22;3967;48.702;9.326;2023-04-07T03:51:13;8.20;98.20
7844;DHT22;3967;48.702;9.326;2023-04-07T03:53:40;8.30;98.20
7844;DHT22;3967;48.702;9.326;2023-04-07T03:56:07;8.20;97.30
7844;DHT22;3967;48.702;9.326;2023-04-07T03:58:34;8.20;97.10
7844;DHT22;3967;48.702;9.326;2023-04-07T04:01:00;8.30;96.90
7844;DHT22;3967;48.702;9.326;2023-04-07T04:03:28;8.30;97.00
7844;DHT22;3967;48.702;9.326;2023-04-07T04:05:54;8.30;97.10
7844;DHT22;3967;48.702;9.326;2023-04-07T04:08:21;8.20;97.50
7844;DHT22;3967;48.702;9.326;2023-04-07T04:10:48;8.20;97.80
7844;DHT22;3967;48.702;9.326;2023-04-07T04:13:15;8.20;97.50
7844;DHT22;3967;48.702;9.326;2023-04-07T04:15:42;8.20;97.30
7844;DHT22;3967;48.702;9.326;2023-04-07T04:18:09;8.10;97.60
7844;DHT22;3967;48.702;9.326;2023-04-07T04:20:35;8.00;98.40
7844;DHT22;3967;48.702;9.326;2023-04-07T04:23:03;7.90;98.60
7844;DHT22;3967;48.702;9.326;2023-04-07T04:25:30;7.90;99.00
7844;DHT22;3967;48.702;9.326;2023-04-07T04:27:56;8.10;98.90
7844;DHT22;3967;48.702;9.326;2023-04-07T04:30:23;8.10;98.40
7844;DHT22;3967;48.702;9.326;2023-04-07T04:32:50;8.00;98.50
7844;DHT22;3967;48.702;9.326;2023-04-07T04:35:16;8.00;98.40
7844;DHT22;3967;48.702;9.326;2023-04-07T04:37:43;8.00;97.80
7844;DHT22;3967;48.702;9.326;2023-04-07T04:40:10;8.00;97.30
7844;DHT22;3967;48.702;9.326;2023-04-07T04:42:37;7.90;97.50
7844;DHT22;3967;48.702;9.326;2023-04-07T04:45:04;7.80;97.50
7844;DHT22;3967;48.702;9.326;2023-04-07T04:47:31;7.80;98.60
7844;DHT22;3967;48.702;9.326;2023-04-07T04:49:58;7.80;98.40
7844;DHT22;3967;48.702;9.326;2023-04-07T04:52:24;7.70;98.60
7844;DHT22;3967;48.702;9.326;2023-04-07T04:54:53;7.70;98.60
7844;DHT22;3967;48.702;9.326;2023-04-07T04:57:20;7.70;99.10
7844;DHT22;3967;48.702;9.326;2023-04-07T04:59:46;7.80;99.10
7844;DHT22;3967;48.702;9.326;2023-04-07T05:02:13;7.80;98.70
7844;DHT22;3967;48.702;9.326;2023-04-07T05:04:40;7.80;98.80
7844;DHT22;3967;48.702;9.326;2023-04-07T05:07:07;7.80;98.60
7844;DHT22;3967;48.702;9.326;2023-04-07T05:09:33;7.80;98.60
7844;DHT22;3967;48.702;9.326;2023-04-07T05:12:00;7.80;98.30
7844;DHT22;3967;48.702;9.326;2023-04-07T05:14:28;7.90;98.10
7844;DHT22;3967;48.702;9.326;2023-04-07T05:16:54;7.90;97.90
7844;DHT22;3967;48.702;9.326;2023-04-07T05:19:21;8.00;97.80
7844;DHT22;3967;48.702;9.326;2023-04-07T05:21:48;8.00;97.90
7844;DHT22;3967;48.702;9.326;2023-04-07T05:24:14;8.00;98.20
7844;DHT22;3967;48.702;9.326;2023-04-07T05:26:41;8.00;98.50
7844;DHT22;3967;48.702;9.326;2023-04-07T05:29:08;7.90;99.00
7844;DHT22;3967;48.702;9.326;2023-04-07T05:31:34;8.00;98.80
7844;DHT22;3967;48.702;9.326;2023-04-07T05:34:02;8.10;98.60
7844;DHT22;3967;48.702;9.326;2023-04-07T05:36:29;8.20;98.50
7844;DHT22;3967;48.702;9.326;2023-04-07T05:38:57;8.20;98.20
7844;DHT22;3967;48.702;9.326;2023-04-07T05:41:23;8.20;98.30
7844;DHT22;3967;48.702;9.326;2023-04-07T05:43:50;8.10;98.40
7844;DHT22;3967;48.702;9.326;2023-04-07T05:46:17;8.20;98.50
7844;DHT22;3967;48.702;9.326;2023-04-07T05:48:44;8.10;98.80
7844;DHT22;3967;48.702;9.326;2023-04-07T05:51:11;8.10;99.00
7844;DHT22;3967;48.702;9.326;2023-04-07T05:53:37;8.00;99.20
7844;DHT22;3967;48.702;9.326;2023-04-07T05:56:04;7.90;99.80
7844;DHT22;3967;48.702;9.326;2023-04-07T05:58:31;8.00;99.90
7844;DHT22;3967;48.702;9.326;2023-04-07T06:00:58;7.80;99.90
7844;DHT22;3967;48.702;9.326;2023-04-07T06:03:25;7.40;99.90
7844;DHT22;3967;48.702;9.326;2023-04-07T06:05:52;7.50;99.90
7844;DHT22;3967;48.702;9.326;2023-04-07T06:08:18;7.70;99.90
7844;DHT22;3967;48.702;9.326;2023-04-07T06:10:45;7.80;99.90
7844;DHT22;3967;48.702;9.326;2023-04-07T06:13:12;7.80;99.90
7844;DHT22;3967;48.702;9.326;2023-04-07T06:15:38;7.70;99.90
7844;DHT22;3967;48.702;9.326;2023-04-07T06:18:05;7.70;99.90
7844;DHT22;3967;48.702;9.326;2023-04-07T06:20:32;7.70;99.90
7844;DHT22;3967;48.702;9.326;2023-04-07T06:22:58;7.70;99.90
7844;DHT22;3967;48.702;9.326;2023-04-07T06:25:25;7.90;99.90
7844;DHT22;3967;48.702;9.326;2023-04-07T06:27:53;7.90;99.90
7844;DHT22;3967;48.702;9.326;2023-04-07T06:30:20;7.90;99.90
7844;DHT22;3967;48.702;9.326;2023-04-07T06:32:46;7.80;99.90
7844;DHT22;3967;48.702;9.326;2023-04-07T06:35:13;7.90;99.90
7844;DHT22;3967;48.702;9.326;2023-04-07T06:37:40;7.90;99.90
7844;DHT22;3967;48.702;9.326;2023-04-07T06:40:09;7.90;99.90
7844;DHT22;3967;48.702;9.326;2023-04-07T06:42:42;7.90;99.90
7844;DHT22;3967;48.702;9.326;2023-04-07T06:45:09;7.90;99.90
7844;DHT22;3967;48.702;9.326;2023-04-07T06:47:36;7.70;99.90
7844;DHT22;3967;48.702;9.326;2023-04-07T06:50:04;7.80;99.90
7844;DHT22;3967;48.702;9.326;2023-04-07T06:52:31;7.90;99.90
7844;DHT22;3967;48.702;9.326;2023-04-07T06:54:57;7.90;99.90
7844;DHT22;3967;48.702;9.326;2023-04-07T06:57:25;7.90;99.90
7844;DHT22;3967;48.702;9.326;2023-04-07T06:59:51;8.00;99.90
7844;DHT22;3967;48.702;9.326;2023-04-07T07:02:18;7.90;99.90
7844;DHT22;3967;48.702;9.326;2023-04-07T07:04:45;8.00;99.90
7844;DHT22;3967;48.702;9.326;2023-04-07T07:07:12;7.90;99.90
7844;DHT22;3967;48.702;9.326;2023-04-07T07:09:39;7.90;99.90
7844;DHT22;3967;48.702;9.326;2023-04-07T07:12:06;8.00;99.90
7844;DHT22;3967;48.702;9.326;2023-04-07T07:14:32;8.00;99.90
7844;DHT22;3967;48.702;9.326;2023-04-07T07:17:00;8.10;99.90
7844;DHT22;3967;48.702;9.326;2023-04-07T07:19:26;8.10;99.90
7844;DHT22;3967;48.702;9.326;2023-04-07T07:21:53;8.20;99.90
7844;DHT22;3967;48.702;9.326;2023-04-07T07:24:21;8.50;99.90
7844;DHT22;3967;48.702;9.326;2023-04-07T07:26:47;8.50;99.90
7844;DHT22;3967;48.702;9.326;2023-04-07T07:29:14;8.60;99.90
7844;DHT22;3967;48.702;9.326;2023-04-07T07:31:41;8.70;99.90
7844;DHT22;3967;48.702;9.326;2023-04-07T07:34:08;8.80;99.90
7844;DHT22;3967;48.702;9.326;2023-04-07T07:36:35;9.00;99.70
7844;DHT22;3967;48.702;9.326;2023-04-07T07:39:01;9.30;98.30
7844;DHT22;3967;48.702;9.326;2023-04-07T07:41:28;9.50;97.90
7844;DHT22;3967;48.702;9.326;2023-04-07T07:43:55;9.60;97.10
7844;DHT22;3967;48.702;9.326;2023-04-07T07:46:22;9.80;96.70
7844;DHT22;3967;48.702;9.326;2023-04-07T07:48:51;9.90;96.40
7844;DHT22;3967;48.702;9.326;2023-04-07T07:51:18;10.00;94.90
7844;DHT22;3967;48.702;9.326;2023-04-07T07:53:44;10.10;94.30
7844;DHT22;3967;48.702;9.326;2023-04-07T07:56:12;9.90;94.50
7844;DHT22;3967;48.702;9.326;2023-04-07T07:58:39;10.10;94.00
7844;DHT22;3967;48.702;9.326;2023-04-07T08:01:05;10.50;94.20
7844;DHT22;3967;48.702;9.326;2023-04-07T08:03:32;10.80;92.40
7844;DHT22;3967;48.702;9.326;2023-04-07T08:05:59;11.40;91.40
7844;DHT22;3967;48.702;9.326;2023-04-07T08:08:26;11.50;89.10
7844;DHT22;3967;48.702;9.326;2023-04-07T08:10:53;11.70;88.90
7844;DHT22;3967;48.702;9.326;2023-04-07T08:13:20;11.90;88.00
7844;DHT22;3967;48.702;9.326;2023-04-07T08:15:46;12.20;84.80
7844;DHT22;3967;48.702;9.326;2023-04-07T08:18:13;12.50;83.70
7844;DHT22;3967;48.702;9.326;2023-04-07T08:20:40;12.70;82.30
7844;DHT22;3967;48.702;9.326;2023-04-07T08:23:07;12.70;83.20
7844;DHT22;3967;48.702;9.326;2023-04-07T08:25:34;12.80;82.00
7844;DHT22;3967;48.702;9.326;2023-04-07T08:28:01;13.00;81.40
7844;DHT22;3967;48.702;9.326;2023-04-07T08:30:27;13.20;80.80
7844;DHT22;3967;48.702;9.326;2023-04-07T08:32:54;12.90;79.30
7844;DHT22;3967;48.702;9.326;2023-04-07T08:35:22;12.90;79.00
7844;DHT22;3967;48.702;9.326;2023-04-07T08:37:49;13.30;80.60
7844;DHT22;3967;48.702;9.326;2023-04-07T08:40:16;13.30;80.20
7844;DHT22;3967;48.702;9.326;2023-04-07T08:42:46;13.40;79.70
7844;DHT22;3967;48.702;9.326;2023-04-07T08:45:13;13.40;78.50
7844;DHT22;3967;48.702;9.326;2023-04-07T08:47:42;13.40;78.50
7844;DHT22;3967;48.702;9.326;2023-04-07T08:50:10;13.60;78.40
7844;DHT22;3967;48.702;9.326;2023-04-07T08:52:49;13.60;77.10
7844;DHT22;3967;48.702;9.326;2023-04-07T08:55:16;13.70;78.10
7844;DHT22;3967;48.702;9.326;2023-04-07T08:57:43;13.70;77.10
7844;DHT22;3967;48.702;9.326;2023-04-07T09:00:12;13.70;78.60
7844;DHT22;3967;48.702;9.326;2023-04-07T09:02:41;13.50;79.10
7844;DHT22;3967;48.702;9.326;2023-04-07T09:05:10;13.70;79.40
7844;DHT22;3967;48.702;9.326;2023-04-07T09:07:39;13.80;79.10
7844;DHT22;3967;48.702;9.326;2023-04-07T09:10:06;13.90;78.30
7844;DHT22;3967;48.702;9.326;2023-04-07T09:12:33;13.50;78.40
7844;DHT22;3967;48.702;9.326;2023-04-07T09:15:00;13.40;79.00
7844;DHT22;3967;48.702;9.326;2023-04-07T09:17:28;13.30;78.60
7844;DHT22;3967;48.702;9.326;2023-04-07T09:19:59;13.30;78.60
7844;DHT22;3967;48.702;9.326;2023-04-07T09:22:40;13.30;77.20
7844;DHT22;3967;48.702;9.326;2023-04-07T09:25:19;13.40;76.70
7844;DHT22;3967;48.702;9.326;2023-04-07T09:28:04;13.60;78.40
7844;DHT22;3967;48.702;9.326;2023-04-07T09:30:32;13.40;76.50
7844;DHT22;3967;48.702;9.326;2023-04-07T09:33:00;13.50;76.30
7844;DHT22;3967;48.702;9.326;2023-04-07T09:35:27;13.70;75.80
7844;DHT22;3967;48.702;9.326;2023-04-07T09:38:08;13.90;75.70
7844;DHT22;3967;48.702;9.326;2023-04-07T09:40:35;14.00;75.40
7844;DHT22;3967;48.702;9.326;2023-04-07T09:43:04;14.00;75.70
7844;DHT22;3967;48.702;9.326;2023-04-07T09:45:32;13.80;75.90
7844;DHT22;3967;48.702;9.326;2023-04-07T09:48:27;13.90;75.50
7844;DHT22;3967;48.702;9.326;2023-04-07T09:51:05;13.90;74.40
7844;DHT22;3967;48.702;9.326;2023-04-07T09:53:45;14.10;74.40
7844;DHT22;3967;48.702;9.326;2023-04-07T09:56:18;14.40;74.20
7844;DHT22;3967;48.702;9.326;2023-04-07T09:58:45;14.20;75.20
7844;DHT22;3967;48.702;9.326;2023-04-07T10:01:14;14.30;75.60
7844;DHT22;3967;48.702;9.326;2023-04-07T10:03:43;13.40;74.90
7844;DHT22;3967;48.702;9.326;2023-04-07T10:06:10;13.40;75.50
7844;DHT22;3967;48.702;9.326;2023-04-07T10:08:40;13.50;75.90
7844;DHT22;3967;48.702;9.326;2023-04-07T10:11:07;13.40;76.60
7844;DHT22;3967;48.702;9.326;2023-04-07T10:13:38;13.50;76.30
7844;DHT22;3967;48.702;9.326;2023-04-07T10:16:06;13.70;75.00
7844;DHT22;3967;48.702;9.326;2023-04-07T10:18:35;13.60;74.80
7844;DHT22;3967;48.702;9.326;2023-04-07T10:21:04;13.90;75.70
7844;DHT22;3967;48.702;9.326;2023-04-07T10:23:51;13.60;74.90
7844;DHT22;3967;48.702;9.326;2023-04-07T10:26:21;13.70;76.10
7844;DHT22;3967;48.702;9.326;2023-04-07T10:28:52;13.80;77.40
7844;DHT22;3967;48.702;9.326;2023-04-07T10:31:22;14.00;77.80
7844;DHT22;3967;48.702;9.326;2023-04-07T10:33:53;13.80;76.90
7844;DHT22;3967;48.702;9.326;2023-04-07T10:36:20;13.70;77.20
7844;DHT22;3967;48.702;9.326;2023-04-07T10:44:04;13.80;77.10
7844;DHT22;3967;48.702;9.326;2023-04-07T10:49:15;14.10;77.10
7844;DHT22;3967;48.702;9.326;2023-04-07T10:52:23;13.80;76.40
7844;DHT22;3967;48.702;9.326;2023-04-07T11:03:23;14.00;75.90
7844;DHT22;3967;48.702;9.326;2023-04-07T11:05:50;13.70;76.00
7844;DHT22;3967;48.702;9.326;2023-04-07T11:10:59;13.90;78.10
7844;DHT22;3967;48.702;9.326;2023-04-07T11:13:26;14.20;76.80
7844;DHT22;3967;48.702;9.326;2023-04-07T11:15:53;14.10;76.10
7844;DHT22;3967;48.702;9.326;2023-04-07T11:18:21;14.40;75.30
7844;DHT22;3967;48.702;9.326;2023-04-07T11:20:54;14.50;75.10
7844;DHT22;3967;48.702;9.326;2023-04-07T11:23:22;14.40;73.70
7844;DHT22;3967;48.702;9.326;2023-04-07T11:25:52;14.10;73.20
7844;DHT22;3967;48.702;9.326;2023-04-07T11:28:19;13.90;72.80
7844;DHT22;3967;48.702;9.326;2023-04-07T11:30:49;14.40;75.50
7844;DHT22;3967;48.702;9.326;2023-04-07T11:33:19;13.90;73.70
7844;DHT22;3967;48.702;9.326;2023-04-07T11:35:51;14.10;73.20
7844;DHT22;3967;48.702;9.326;2023-04-07T11:38:18;14.40;72.70
7844;DHT22;3967;48.702;9.326;2023-04-07T11:40:47;14.50;72.60
7844;DHT22;3967;48.702;9.326;2023-04-07T11:43:17;14.40;72.70
7844;DHT22;3967;48.702;9.326;2023-04-07T11:45:45;14.60;74.00
7844;DHT22;3967;48.702;9.326;2023-04-07T11:48:31;14.50;73.20
7844;DHT22;3967;48.702;9.326;2023-04-07T11:50:59;14.40;73.10
7844;DHT22;3967;48.702;9.326;2023-04-07T11:53:34;14.70;72.60
7844;DHT22;3967;48.702;9.326;2023-04-07T11:58:29;14.60;72.10
7844;DHT22;3967;48.702;9.326;2023-04-07T12:01:01;14.50;71.20
7844;DHT22;3967;48.702;9.326;2023-04-07T12:03:32;14.30;71.30
7844;DHT22;3967;48.702;9.326;2023-04-07T12:06:03;14.10;71.80
7844;DHT22;3967;48.702;9.326;2023-04-07T12:08:41;14.20;71.40
7844;DHT22;3967;48.702;9.326;2023-04-07T12:11:09;14.40;71.40
7844;DHT22;3967;48.702;9.326;2023-04-07T12:13:36;14.70;71.20
7844;DHT22;3967;48.702;9.326;2023-04-07T12:16:06;14.80;71.10
7844;DHT22;3967;48.702;9.326;2023-04-07T12:18:35;14.60;70.70
7844;DHT22;3967;48.702;9.326;2023-04-07T12:21:02;14.30;69.90
7844;DHT22;3967;48.702;9.326;2023-04-07T12:23:29;14.20;69.50
7844;DHT22;3967;48.702;9.326;2023-04-07T12:25:55;14.20;69.40
7844;DHT22;3967;48.702;9.326;2023-04-07T12:28:22;14.00;69.20
7844;DHT22;3967;48.702;9.326;2023-04-07T12:30:49;14.10;70.70
7844;DHT22;3967;48.702;9.326;2023-04-07T12:33:16;14.10;71.80
7844;DHT22;3967;48.702;9.326;2023-04-07T12:35:42;13.90;71.80
7844;DHT22;3967;48.702;9.326;2023-04-07T12:38:09;13.70;72.70
7844;DHT22;3967;48.702;9.326;2023-04-07T12:40:36;13.60;74.80
7844;DHT22;3967;48.702;9.326;2023-04-07T12:43:06;13.40;76.50
7844;DHT22;3967;48.702;9.326;2023-04-07T12:45:33;13.20;78.40
7844;DHT22;3967;48.702;9.326;2023-04-07T12:47:59;13.10;79.70
7844;DHT22;3967;48.702;9.326;2023-04-07T12:50:31;13.00;79.80
7844;DHT22;3967;48.702;9.326;2023-04-07T12:52:58;13.00;80.70
7844;DHT22;3967;48.702;9.326;2023-04-07T12:55:26;12.70;80.50
7844;DHT22;3967;48.702;9.326;2023-04-07T12:57:56;12.80;79.90
7844;DHT22;3967;48.702;9.326;2023-04-07T13:00:22;12.70;79.70
7844;DHT22;3967;48.702;9.326;2023-04-07T13:02:50;12.60;80.50
7844;DHT22;3967;48.702;9.326;2023-04-07T13:05:17;12.40;80.40
7844;DHT22;3967;48.702;9.326;2023-04-07T13:07:44;12.30;81.50
7844;DHT22;3967;48.702;9.326;2023-04-07T13:10:12;12.30;81.70
7844;DHT22;3967;48.702;9.326;2023-04-07T13:12:39;12.10;82.40
7844;DHT22;3967;48.702;9.326;2023-04-07T13:15:07;11.90;83.30
7844;DHT22;3967;48.702;9.326;2023-04-07T13:17:33;11.80;83.10
7844;DHT22;3967;48.702;9.326;2023-04-07T13:20:03;11.70;83.10
7844;DHT22;3967;48.702;9.326;2023-04-07T13:22:31;11.50;85.70
7844;DHT22;3967;48.702;9.326;2023-04-07T13:25:01;11.30;88.80
7844;DHT22;3967;48.702;9.326;2023-04-07T13:27:28;11.40;91.30
7844;DHT22;3967;48.702;9.326;2023-04-07T13:29:57;11.50;90.30
7844;DHT22;3967;48.702;9.326;2023-04-07T13:32:25;11.50;90.20
7844;DHT22;3967;48.702;9.326;2023-04-07T13:34:52;11.60;89.90
7844;DHT22;3967;48.702;9.326;2023-04-07T13:37:19;11.50;89.90
7844;DHT22;3967;48.702;9.326;2023-04-07T13:39:46;11.60;90.70
7844;DHT22;3967;48.702;9.326;2023-04-07T13:42:13;11.60;90.40
7844;DHT22;3967;48.702;9.326;2023-04-07T13:44:43;11.80;90.80
7844;DHT22;3967;48.702;9.326;2023-04-07T13:47:13;11.80;90.20
7844;DHT22;3967;48.702;9.326;2023-04-07T13:49:48;11.80;91.00
7844;DHT22;3967;48.702;9.326;2023-04-07T13:52:15;11.90;91.90
7844;DHT22;3967;48.702;9.326;2023-04-07T13:54:42;12.00;90.70
7844;DHT22;3967;48.702;9.326;2023-04-07T13:57:09;12.10;91.60
7844;DHT22;3967;48.702;9.326;2023-04-07T13:59:36;12.20;91.30
7844;DHT22;3967;48.702;9.326;2023-04-07T14:02:03;12.20;91.20
7844;DHT22;3967;48.702;9.326;2023-04-07T14:04:32;12.30;90.00
7844;DHT22;3967;48.702;9.326;2023-04-07T14:06:59;12.30;91.10
7844;DHT22;3967;48.702;9.326;2023-04-07T14:09:25;12.30;92.30
7844;DHT22;3967;48.702;9.326;2023-04-07T14:11:52;12.30;92.20
7844;DHT22;3967;48.702;9.326;2023-04-07T14:14:19;12.20;92.50
7844;DHT22;3967;48.702;9.326;2023-04-07T14:16:45;12.20;92.00
7844;DHT22;3967;48.702;9.326;2023-04-07T14:19:14;12.30;92.50
7844;DHT22;3967;48.702;9.326;2023-04-07T14:21:41;12.30;91.80
7844;DHT22;3967;48.702;9.326;2023-04-07T14:24:08;12.30;91.00
7844;DHT22;3967;48.702;9.326;2023-04-07T14:26:34;12.40;91.50
7844;DHT22;3967;48.702;9.326;2023-04-07T14:29:01;12.50;91.00
7844;DHT22;3967;48.702;9.326;2023-04-07T14:31:29;12.40;90.50
7844;DHT22;3967;48.702;9.326;2023-04-07T14:33:56;12.50;91.60
7844;DHT22;3967;48.702;9.326;2023-04-07T14:36:23;12.60;92.10
7844;DHT22;3967;48.702;9.326;2023-04-07T14:38:49;12.80;92.90
7844;DHT22;3967;48.702;9.326;2023-04-07T14:41:16;12.70;90.80
7844;DHT22;3967;48.702;9.326;2023-04-07T14:43:43;12.90;91.00
7844;DHT22;3967;48.702;9.326;2023-04-07T14:46:10;12.90;91.00
7844;DHT22;3967;48.702;9.326;2023-04-07T14:48:38;12.90;91.90
7844;DHT22;3967;48.702;9.326;2023-04-07T14:51:10;12.90;91.70
7844;DHT22;3967;48.702;9.326;2023-04-07T14:53:41;13.10;92.70
7844;DHT22;3967;48.702;9.326;2023-04-07T14:56:08;13.10;92.40
7844;DHT22;3967;48.702;9.326;2023-04-07T14:58:34;13.00;92.30
7844;DHT22;3967;48.702;9.326;2023-04-07T15:01:04;13.20;92.00
7844;DHT22;3967;48.702;9.326;2023-04-07T15:03:32;13.00;92.50
7844;DHT22;3967;48.702;9.326;2023-04-07T15:06:00;13.10;92.10
7844;DHT22;3967;48.702;9.326;2023-04-07T15:08:27;13.30;91.80
7844;DHT22;3967;48.702;9.326;2023-04-07T15:10:54;13.20;91.60
7844;DHT22;3967;48.702;9.326;2023-04-07T15:13:20;13.20;88.90
7844;DHT22;3967;48.702;9.326;2023-04-07T15:15:47;13.40;90.50
7844;DHT22;3967;48.702;9.326;2023-04-07T15:18:14;13.40;90.40
7844;DHT22;3967;48.702;9.326;2023-04-07T15:20:41;13.40;88.50
7844;DHT22;3967;48.702;9.326;2023-04-07T15:23:07;13.40;86.50
7844;DHT22;3967;48.702;9.326;2023-04-07T15:25:34;13.40;87.60
7844;DHT22;3967;48.702;9.326;2023-04-07T15:28:01;13.40;86.70
7844;DHT22;3967;48.702;9.326;2023-04-07T15:30:28;13.30;85.20
7844;DHT22;3967;48.702;9.326;2023-04-07T15:32:58;13.30;84.30
7844;DHT22;3967;48.702;9.326;2023-04-07T15:35:26;13.10;83.50
7844;DHT22;3967;48.702;9.326;2023-04-07T15:37:53;13.10;84.20
7844;DHT22;3967;48.702;9.326;2023-04-07T15:40:20;13.30;80.20
7844;DHT22;3967;48.702;9.326;2023-04-07T15:42:46;13.30;82.80
7844;DHT22;3967;48.702;9.326;2023-04-07T15:45:13;13.40;82.10
7844;DHT22;3967;48.702;9.326;2023-04-07T15:47:40;13.40;81.70
7844;DHT22;3967;48.702;9.326;2023-04-07T15:50:07;13.30;82.40
7844;DHT22;3967;48.702;9.326;2023-04-07T15:52:34;13.30;82.80
7844;DHT22;3967;48.702;9.326;2023-04-07T15:55:01;13.20;82.90
7844;DHT22;3967;48.702;9.326;2023-04-07T15:57:27;13.10;83.50
7844;DHT22;3967;48.702;9.326;2023-04-07T15:59:54;13.10;84.20
7844;DHT22;3967;48.702;9.326;2023-04-07T16:02:21;13.10;84.80
7844;DHT22;3967;48.702;9.326;2023-04-07T16:04:48;13.10;85.70
7844;DHT22;3967;48.702;9.326;2023-04-07T16:07:14;13.20;86.40
7844;DHT22;3967;48.702;9.326;2023-04-07T16:09:41;13.00;86.00
7844;DHT22;3967;48.702;9.326;2023-04-07T16:12:08;12.80;85.80
7844;DHT22;3967;48.702;9.326;2023-04-07T16:14:34;12.80;86.30
7844;DHT22;3967;48.702;9.326;2023-04-07T16:17:01;12.80;86.80
7844;DHT22;3967;48.702;9.326;2023-04-07T16:19:28;12.80;86.80
7844;DHT22;3967;48.702;9.326;2023-04-07T16:21:55;12.70;86.90
7844;DHT22;3967;48.702;9.326;2023-04-07T16:24:22;12.70;87.20
7844;DHT22;3967;48.702;9.326;2023-04-07T16:26:49;12.60;87.00
7844;DHT22;3967;48.702;9.326;2023-04-07T16:29:19;12.60;87.70
7844;DHT22;3967;48.702;9.326;2023-04-07T16:31:56;12.60;87.30
7844;DHT22;3967;48.702;9.326;2023-04-07T16:37:49;12.60;88.80
7844;DHT22;3967;48.702;9.326;2023-04-07T16:40:50;12.60;88.90
7844;DHT22;3967;48.702;9.326;2023-04-07T16:43:32;12.50;89.00
7844;DHT22;3967;48.702;9.326;2023-04-07T16:46:02;12.30;88.50